createdAt,value
2017-07-17T00:00:56.344Z,97.50
2017-07-17T00:03:22.756Z,97.50
2017-07-17T00:05:49.179Z,97.50
2017-07-17T00:08:16.296Z,97.30
2017-07-17T00:10:43.424Z,97.40
2017-07-17T00:13:09.808Z,97.40
2017-07-17T00:15:36.284Z,97.30
2017-07-17T00:18:02.769Z,97.40
2017-07-17T00:20:30.297Z,97.20
2017-07-17T00:22:56.660Z,96.80
2017-07-17T00:25:23.056Z,96.80
2017-07-17T00:27:49.476Z,96.80
2017-07-17T00:30:16.628Z,97.00
2017-07-17T00:32:43.027Z,97.00
2017-07-17T00:35:09.480Z,97.00
2017-07-17T00:37:35.853Z,96.90
2017-07-17T00:40:02.280Z,97.00
2017-07-17T00:42:29.794Z,97.40
2017-07-17T00:44:56.193Z,97.50
2017-07-17T00:47:22.607Z,97.40
2017-07-17T00:49:49.085Z,97.10
2017-07-17T00:52:15.505Z,96.90
2017-07-17T00:54:41.900Z,96.90
2017-07-17T00:57:08.322Z,97.30
2017-07-17T00:59:35.478Z,97.40
2017-07-17T01:02:01.919Z,97.40
2017-07-17T01:04:28.352Z,97.50
2017-07-17T01:06:54.789Z,97.60
2017-07-17T01:09:21.166Z,97.90
2017-07-17T01:11:47.588Z,98.10
2017-07-17T01:14:14.034Z,98.20
2017-07-17T01:16:40.421Z,98.30
2017-07-17T01:19:06.844Z,98.30
2017-07-17T01:21:33.196Z,98.50
2017-07-17T01:23:59.591Z,98.60
2017-07-17T01:26:26.012Z,98.40
2017-07-17T01:28:52.408Z,98.40
2017-07-17T01:31:18.818Z,98.10
2017-07-17T01:33:45.245Z,97.90
2017-07-17T01:36:11.637Z,97.90
2017-07-17T01:38:38.081Z,98.20
2017-07-17T01:41:04.576Z,98.00
2017-07-17T01:43:30.964Z,98.00
2017-07-17T01:45:58.131Z,98.10
2017-07-17T01:48:24.565Z,98.10
2017-07-17T01:50:50.976Z,98.10
2017-07-17T01:53:17.344Z,98.30
2017-07-17T01:55:43.828Z,98.60
2017-07-17T01:58:10.241Z,98.50
2017-07-17T02:00:36.631Z,98.50
2017-07-17T02:03:03.067Z,98.40
2017-07-17T02:05:29.480Z,98.50
2017-07-17T02:07:55.872Z,98.30
2017-07-17T02:10:22.292Z,98.30
2017-07-17T02:12:48.691Z,98.40
2017-07-17T02:15:15.085Z,98.20
2017-07-17T02:17:41.501Z,98.30
2017-07-17T02:20:07.933Z,98.40
2017-07-17T02:22:35.051Z,98.50
2017-07-17T02:25:02.208Z,98.50
2017-07-17T02:27:29.361Z,98.50
2017-07-17T02:29:55.760Z,98.50
2017-07-17T02:32:22.178Z,98.70
2017-07-17T02:34:48.600Z,98.70
2017-07-17T02:37:15.056Z,99.10
2017-07-17T02:39:41.888Z,99.00
2017-07-17T02:42:08.283Z,99.00
2017-07-17T02:44:34.668Z,99.30
2017-07-17T02:47:01.084Z,99.40
2017-07-17T02:49:27.449Z,99.60
2017-07-17T02:51:53.847Z,99.80
2017-07-17T02:54:20.244Z,99.90
2017-07-17T02:56:46.648Z,99.90
2017-07-17T02:59:13.766Z,99.80
2017-07-17T03:01:40.260Z,99.80
2017-07-17T03:04:06.661Z,99.50
2017-07-17T03:06:33.127Z,99.50
2017-07-17T03:08:59.489Z,99.60
2017-07-17T03:11:25.864Z,99.40
2017-07-17T03:13:52.981Z,99.50
2017-07-17T03:16:19.457Z,99.20
2017-07-17T03:18:45.859Z,99.30
2017-07-17T03:21:12.325Z,98.80
2017-07-17T03:23:46.824Z,98.50
2017-07-17T03:26:13.220Z,98.70
2017-07-17T03:28:40.384Z,98.80
2017-07-17T03:31:06.753Z,98.60
2017-07-17T03:33:33.132Z,98.40
2017-07-17T03:35:59.556Z,98.60
2017-07-17T03:38:26.681Z,98.40
2017-07-17T03:40:53.800Z,98.40
2017-07-17T03:43:20.172Z,98.40
2017-07-17T03:45:46.612Z,98.30
2017-07-17T03:48:12.988Z,98.30
2017-07-17T03:50:39.357Z,98.20
2017-07-17T03:53:05.783Z,98.20
2017-07-17T03:55:32.173Z,98.50
2017-07-17T03:57:58.571Z,98.60
2017-07-17T04:00:24.977Z,98.60
2017-07-17T04:02:51.413Z,98.90
2017-07-17T04:05:18.560Z,98.60
2017-07-17T04:07:44.981Z,98.60
2017-07-17T04:10:11.397Z,98.70
2017-07-17T04:12:37.822Z,98.60
2017-07-17T04:15:04.248Z,98.90
2017-07-17T04:17:31.515Z,98.90
2017-07-17T04:19:57.929Z,98.80
2017-07-17T04:22:24.337Z,98.70
2017-07-17T04:24:51.454Z,98.70
2017-07-17T04:27:18.617Z,98.70
2017-07-17T04:29:45.725Z,98.90
2017-07-17T04:32:12.868Z,98.90
2017-07-17T04:34:39.292Z,99.00
2017-07-17T04:37:05.668Z,98.80
2017-07-17T04:39:33.060Z,98.70
2017-07-17T04:41:59.490Z,99.00
2017-07-17T04:44:25.841Z,99.00
2017-07-17T04:46:52.280Z,99.10
2017-07-17T04:49:19.416Z,99.30
2017-07-17T04:51:45.832Z,99.30
2017-07-17T04:54:12.969Z,99.50
2017-07-17T04:56:40.116Z,99.80
2017-07-17T04:59:07.225Z,99.90
2017-07-17T05:01:33.601Z,99.90
2017-07-17T05:04:00.018Z,99.90
2017-07-17T05:06:26.441Z,99.90
2017-07-17T05:08:52.792Z,99.90
2017-07-17T05:11:19.987Z,99.90
2017-07-17T05:13:46.368Z,99.90
2017-07-17T05:16:13.524Z,99.90
2017-07-17T05:18:39.928Z,99.90
2017-07-17T05:21:06.400Z,99.90
2017-07-17T05:23:32.784Z,99.90
2017-07-17T05:25:59.212Z,99.90
2017-07-17T05:28:25.544Z,99.90
2017-07-17T05:30:51.988Z,99.90
2017-07-17T05:33:18.440Z,99.90
2017-07-17T05:35:45.925Z,99.90
2017-07-17T05:38:12.389Z,99.90
2017-07-17T05:40:38.775Z,99.90
2017-07-17T05:43:05.133Z,99.90
2017-07-17T05:45:31.533Z,98.50
2017-07-17T05:47:57.936Z,97.20
2017-07-17T05:50:25.080Z,97.20
2017-07-17T05:52:51.469Z,97.20
2017-07-17T05:55:17.839Z,95.70
2017-07-17T05:57:44.218Z,96.00
2017-07-17T06:00:10.603Z,95.60
2017-07-17T06:02:36.996Z,94.90
2017-07-17T06:05:03.363Z,94.60
2017-07-17T06:07:29.739Z,93.60
2017-07-17T06:09:56.160Z,94.00
2017-07-17T06:12:22.612Z,93.10
2017-07-17T06:14:48.974Z,93.00
2017-07-17T06:17:15.365Z,93.20
2017-07-17T06:19:42.496Z,93.30
2017-07-17T06:22:09.629Z,93.00
2017-07-17T06:24:37.381Z,93.00
2017-07-17T06:27:03.789Z,93.60
2017-07-17T06:29:30.176Z,92.80
2017-07-17T06:31:56.605Z,92.60
2017-07-17T06:34:22.980Z,93.50
2017-07-17T06:36:49.397Z,92.40
2017-07-17T06:39:15.780Z,92.30
2017-07-17T06:41:42.196Z,91.80
2017-07-17T06:44:09.319Z,92.90
2017-07-17T06:46:35.759Z,92.90
2017-07-17T06:49:02.116Z,92.50
2017-07-17T06:51:28.492Z,92.00
2017-07-17T06:53:54.888Z,88.70
2017-07-17T06:56:21.288Z,90.00
2017-07-17T06:58:47.620Z,89.50
2017-07-17T07:01:14.022Z,89.70
2017-07-17T07:03:40.421Z,84.40
2017-07-17T07:06:06.844Z,85.80
2017-07-17T07:08:33.281Z,88.80
2017-07-17T07:10:59.638Z,86.50
2017-07-17T07:13:25.992Z,84.90
2017-07-17T07:15:52.372Z,86.90
2017-07-17T07:18:18.782Z,86.50
2017-07-17T07:20:45.137Z,86.50
2017-07-17T07:23:11.547Z,86.10
2017-07-17T07:25:37.929Z,85.60
2017-07-17T07:28:04.341Z,84.10
2017-07-17T07:30:31.102Z,84.40
2017-07-17T07:32:57.537Z,81.10
2017-07-17T07:35:23.935Z,83.10
2017-07-17T07:37:51.277Z,84.60
2017-07-17T07:40:18.041Z,84.40
2017-07-17T07:42:44.451Z,84.40
2017-07-17T07:45:10.857Z,75.20
2017-07-17T07:47:37.225Z,81.70
2017-07-17T07:50:03.611Z,76.80
2017-07-17T07:52:29.999Z,82.30
2017-07-17T07:54:56.379Z,77.10
2017-07-17T07:57:22.826Z,79.50
2017-07-17T07:59:49.229Z,79.00
2017-07-17T08:02:15.621Z,80.10
2017-07-17T08:04:41.984Z,75.50
2017-07-17T08:07:09.116Z,71.80
2017-07-17T08:09:35.444Z,70.90
2017-07-17T08:12:01.800Z,75.70
2017-07-17T08:14:28.204Z,77.40
2017-07-17T08:16:54.597Z,68.90
2017-07-17T08:19:20.996Z,70.60
2017-07-17T08:21:47.874Z,72.50
2017-07-17T08:24:14.240Z,73.80
2017-07-17T08:26:40.603Z,74.60
2017-07-17T08:29:06.992Z,70.50
2017-07-17T08:31:34.120Z,76.20
2017-07-17T08:34:00.447Z,76.20
2017-07-17T08:36:26.894Z,73.20
2017-07-17T08:38:53.304Z,74.20
2017-07-17T08:41:19.722Z,71.00
2017-07-17T08:43:46.156Z,72.20
2017-07-17T08:46:12.576Z,72.30
2017-07-17T08:48:38.953Z,76.70
2017-07-17T08:51:05.320Z,70.00
2017-07-17T08:53:31.737Z,70.10
2017-07-17T08:55:58.131Z,68.10
2017-07-17T08:58:24.523Z,68.30
2017-07-17T09:00:50.866Z,63.50
2017-07-17T09:03:17.245Z,63.50
2017-07-17T09:05:43.628Z,70.40
2017-07-17T09:08:10.073Z,62.70
2017-07-17T09:10:37.172Z,68.30
2017-07-17T09:13:03.568Z,68.10
2017-07-17T09:15:29.956Z,62.80
2017-07-17T09:17:56.388Z,61.90
2017-07-17T09:20:22.817Z,60.90
2017-07-17T09:22:49.218Z,60.80
2017-07-17T09:25:15.606Z,58.70
2017-07-17T09:27:42.060Z,56.00
2017-07-17T09:30:08.469Z,56.70
2017-07-17T09:32:34.868Z,58.30
2017-07-17T09:35:01.248Z,60.20
2017-07-17T09:37:28.424Z,62.30
2017-07-17T09:39:54.801Z,62.30
2017-07-17T09:42:21.292Z,61.90
2017-07-17T09:44:47.710Z,63.20
2017-07-17T09:47:14.101Z,65.50
2017-07-17T09:49:40.519Z,65.10
2017-07-17T09:52:06.961Z,58.80
2017-07-17T09:54:33.324Z,58.90
2017-07-17T09:56:59.749Z,56.70
2017-07-17T09:59:26.152Z,57.20
2017-07-17T10:01:52.653Z,51.70
2017-07-17T10:04:19.112Z,53.10
2017-07-17T10:06:45.534Z,54.50
2017-07-17T10:09:11.922Z,50.60
2017-07-17T10:11:38.337Z,51.60
2017-07-17T10:14:04.724Z,49.20
2017-07-17T10:16:31.112Z,50.30
2017-07-17T10:18:57.519Z,51.80
2017-07-17T10:21:23.913Z,53.70
2017-07-17T10:23:50.307Z,53.10
2017-07-17T10:26:16.699Z,53.70
2017-07-17T10:28:43.064Z,54.00
2017-07-17T10:31:09.467Z,57.10
2017-07-17T10:33:35.969Z,57.40
2017-07-17T10:36:03.137Z,60.50
2017-07-17T10:38:29.517Z,60.00
2017-07-17T10:40:55.940Z,62.00
2017-07-17T10:43:22.325Z,63.60
2017-07-17T10:45:48.742Z,63.10
2017-07-17T10:48:15.144Z,60.60
2017-07-17T10:50:41.513Z,63.90
2017-07-17T10:53:08.652Z,63.80
2017-07-17T10:55:35.080Z,63.60
2017-07-17T10:58:01.517Z,61.80
2017-07-17T11:00:27.864Z,63.70
2017-07-17T11:02:54.280Z,65.70
2017-07-17T11:05:21.560Z,66.70
2017-07-17T11:07:47.971Z,68.90
2017-07-17T11:10:14.381Z,70.10
2017-07-17T11:12:41.480Z,70.70
2017-07-17T11:15:07.888Z,70.60
2017-07-17T11:17:34.736Z,72.10
2017-07-17T11:20:01.157Z,73.70
2017-07-17T11:22:27.556Z,73.80
2017-07-17T11:24:53.939Z,71.20
2017-07-17T11:27:20.389Z,69.60
2017-07-17T11:29:46.804Z,70.60
2017-07-17T11:32:13.984Z,71.90
2017-07-17T11:34:41.099Z,70.90
2017-07-17T11:37:07.504Z,70.80
2017-07-17T11:39:34.662Z,69.00
2017-07-17T11:42:01.807Z,67.30
2017-07-17T11:44:28.213Z,67.30
2017-07-17T11:59:54.694Z,65.80
2017-07-17T12:02:21.097Z,65.00
2017-07-17T12:04:47.501Z,63.90
2017-07-17T12:07:13.882Z,65.80
2017-07-17T12:09:41.175Z,60.40
2017-07-17T12:12:07.549Z,60.20
2017-07-17T12:14:33.915Z,61.80
2017-07-17T12:17:00.300Z,61.10
2017-07-17T12:19:26.755Z,65.70
2017-07-17T12:21:53.136Z,64.60
2017-07-17T12:24:19.560Z,63.80
2017-07-17T12:26:45.975Z,60.60
2017-07-17T12:29:12.359Z,60.40
2017-07-17T12:31:38.775Z,63.70
2017-07-17T12:34:05.180Z,60.40
2017-07-17T12:36:32.270Z,56.30
2017-07-17T12:38:58.633Z,56.30
2017-07-17T12:41:25.752Z,55.70
2017-07-17T12:43:52.164Z,55.10
2017-07-17T12:46:18.539Z,54.10
2017-07-17T12:48:44.950Z,51.40
2017-07-17T12:51:11.441Z,50.50
2017-07-17T12:53:37.846Z,48.80
2017-07-17T12:56:05.002Z,42.30
2017-07-17T12:58:31.375Z,42.20
2017-07-17T13:00:57.775Z,38.60
2017-07-17T13:03:24.179Z,39.70
2017-07-17T13:05:50.626Z,38.30
2017-07-17T13:08:17.033Z,34.40
2017-07-17T13:10:43.412Z,29.80
2017-07-17T13:13:09.755Z,26.60
2017-07-17T13:15:36.127Z,25.60
2017-07-17T13:18:02.589Z,26.90
2017-07-17T13:20:28.927Z,29.80
2017-07-17T13:22:56.047Z,32.60
2017-07-17T13:25:22.432Z,31.90
2017-07-17T13:27:48.795Z,32.70
2017-07-17T13:30:15.244Z,33.60
2017-07-17T13:32:41.655Z,36.20
2017-07-17T13:35:08.086Z,40.10
2017-07-17T13:37:35.543Z,36.10
2017-07-17T13:40:02.526Z,37.40
2017-07-17T13:42:29.353Z,37.60
2017-07-17T13:44:55.755Z,38.10
2017-07-17T13:47:22.151Z,42.80
2017-07-17T13:49:48.530Z,42.10
2017-07-17T13:52:14.940Z,41.70
2017-07-17T13:54:41.327Z,44.40
2017-07-17T13:57:07.697Z,44.60
2017-07-17T13:59:34.147Z,46.30
2017-07-17T14:02:00.521Z,48.50
2017-07-17T14:04:26.912Z,51.50
2017-07-17T14:06:53.339Z,51.00
2017-07-17T14:09:19.748Z,50.30
2017-07-17T14:11:46.199Z,49.70
2017-07-17T14:14:12.621Z,48.80
2017-07-17T14:16:39.012Z,47.80
2017-07-17T14:19:05.459Z,47.00
2017-07-17T14:21:31.864Z,46.60
2017-07-17T14:23:58.291Z,47.90
2017-07-17T14:26:24.664Z,46.90
2017-07-17T14:28:51.079Z,46.60
2017-07-17T14:31:17.471Z,46.40
2017-07-17T14:33:43.857Z,46.30
2017-07-17T14:36:10.280Z,45.80
2017-07-17T14:38:36.670Z,44.90
2017-07-17T14:41:03.031Z,44.30
2017-07-17T14:43:29.431Z,43.30
2017-07-17T14:45:55.832Z,43.10
2017-07-17T14:48:22.198Z,44.20
2017-07-17T14:50:49.331Z,42.40
2017-07-17T14:53:15.712Z,42.30
2017-07-17T14:55:42.112Z,44.30
2017-07-17T14:58:08.576Z,43.90
2017-07-17T15:00:34.963Z,43.30
2017-07-17T15:03:01.346Z,41.00
2017-07-17T15:05:27.707Z,39.80
2017-07-17T15:07:54.104Z,39.00
2017-07-17T15:10:20.487Z,41.00
2017-07-17T15:12:46.883Z,39.50
2017-07-17T15:15:13.283Z,39.70
2017-07-17T15:17:39.716Z,41.60
2017-07-17T15:20:06.147Z,40.60
2017-07-17T15:22:32.543Z,43.20
2017-07-17T15:24:58.943Z,42.00
2017-07-17T15:27:25.343Z,42.90
2017-07-17T15:29:51.767Z,44.20
2017-07-17T15:32:33.032Z,44.80
2017-07-17T15:34:59.420Z,44.90
2017-07-17T15:37:25.775Z,44.10
2017-07-17T15:39:52.183Z,42.30
2017-07-17T15:42:18.564Z,41.40
2017-07-17T15:44:44.959Z,42.80
2017-07-17T15:47:12.077Z,45.70
2017-07-17T15:49:38.502Z,45.70
2017-07-17T15:52:05.646Z,46.70
2017-07-17T15:54:33.167Z,46.70
2017-07-17T15:57:00.358Z,48.00
2017-07-17T15:59:26.740Z,48.10
2017-07-17T16:01:53.839Z,50.40
2017-07-17T16:04:21.000Z,51.90
2017-07-17T16:06:47.379Z,51.90
2017-07-17T16:09:13.760Z,50.10
2017-07-17T16:11:40.219Z,51.90
2017-07-17T16:14:06.680Z,52.50
2017-07-17T16:16:34.051Z,51.60
2017-07-17T16:19:00.467Z,52.90
2017-07-17T16:21:26.874Z,54.20
2017-07-17T16:23:53.271Z,51.80
2017-07-17T16:26:19.753Z,51.90
2017-07-17T16:28:46.147Z,53.40
2017-07-17T16:31:12.543Z,55.60
2017-07-17T16:33:38.976Z,52.30
2017-07-17T16:36:05.374Z,52.50
2017-07-17T16:38:31.788Z,55.60
2017-07-17T16:40:58.203Z,54.90
2017-07-17T16:43:24.591Z,55.20
2017-07-17T16:45:51.819Z,55.30
2017-07-17T16:48:18.269Z,55.20
2017-07-17T16:50:44.635Z,54.50
2017-07-17T16:53:11.049Z,55.50
2017-07-17T16:55:37.483Z,56.60
2017-07-17T16:58:04.588Z,56.20
2017-07-17T17:00:30.980Z,56.70
2017-07-17T17:02:57.412Z,57.00
2017-07-17T17:05:23.864Z,57.80
2017-07-17T17:07:51.000Z,58.60
2017-07-17T17:10:17.441Z,58.70
2017-07-17T17:12:43.863Z,58.60
2017-07-17T17:15:10.259Z,59.10
2017-07-17T17:17:36.716Z,62.20
2017-07-17T17:20:03.164Z,62.80
2017-07-17T17:22:29.556Z,64.80
2017-07-17T17:24:56.022Z,64.40
2017-07-17T17:27:22.393Z,61.90
2017-07-17T17:29:48.813Z,64.10
2017-07-17T17:32:15.236Z,67.20
2017-07-17T17:34:41.643Z,66.00
2017-07-17T17:37:08.031Z,62.00
2017-07-17T17:39:34.475Z,62.10
2017-07-17T17:42:00.960Z,61.20
2017-07-17T17:44:27.408Z,62.20
2017-07-17T17:46:53.849Z,63.00
2017-07-17T17:49:20.230Z,62.70
2017-07-17T17:51:46.619Z,63.20
2017-07-17T17:54:13.040Z,62.90
2017-07-17T17:56:39.507Z,63.30
2017-07-17T17:59:05.893Z,64.00
2017-07-17T18:01:32.281Z,65.10
2017-07-17T18:03:59.477Z,66.10
2017-07-17T18:06:25.943Z,66.10
2017-07-17T18:08:52.411Z,66.50
2017-07-17T18:11:18.848Z,66.70
2017-07-17T18:13:45.214Z,66.90
2017-07-17T18:16:11.652Z,67.70
2017-07-17T18:18:38.077Z,68.00
2017-07-17T18:21:04.472Z,68.90
2017-07-17T18:23:30.960Z,69.00
2017-07-17T18:25:57.371Z,70.50
2017-07-17T18:28:23.930Z,69.40
2017-07-17T18:30:50.353Z,69.80
2017-07-17T18:33:16.803Z,70.20
2017-07-17T18:35:43.193Z,70.80
2017-07-17T18:38:09.735Z,70.60
2017-07-17T18:40:36.583Z,72.10
2017-07-17T18:43:03.347Z,73.80
2017-07-17T18:45:30.376Z,73.50
2017-07-17T18:47:57.281Z,75.00
2017-07-17T18:50:23.980Z,76.80
2017-07-17T18:52:50.889Z,76.50
2017-07-17T18:55:17.607Z,75.80
2017-07-17T18:57:44.167Z,77.00
2017-07-17T19:00:11.155Z,77.00
2017-07-17T19:02:37.731Z,78.40
2017-07-17T19:05:04.609Z,79.30
2017-07-17T19:07:31.591Z,79.30
2017-07-17T19:09:59.828Z,80.90
2017-07-17T19:12:27.163Z,80.90
2017-07-17T19:14:54.888Z,80.30
2017-07-17T19:17:22.199Z,80.70
2017-07-17T19:19:50.561Z,81.40
2017-07-17T19:22:19.067Z,82.40
2017-07-17T19:24:46.488Z,82.40
2017-07-17T19:27:14.257Z,82.60
2017-07-17T19:29:41.855Z,83.20
2017-07-17T19:32:09.445Z,84.50
2017-07-17T19:34:37.720Z,85.10
2017-07-17T19:37:05.435Z,85.10
2017-07-17T19:39:33.206Z,85.20
2017-07-17T19:42:00.942Z,86.60
2017-07-17T19:44:28.777Z,85.90
2017-07-17T19:46:57.327Z,85.90
2017-07-17T19:49:25.134Z,86.70
2017-07-17T19:51:53.020Z,86.80
2017-07-17T19:54:20.855Z,87.70
2017-07-17T19:56:48.740Z,88.30
2017-07-17T19:59:16.660Z,88.80
2017-07-17T20:01:44.444Z,89.40
2017-07-17T20:04:12.170Z,89.50
2017-07-17T20:06:40.110Z,89.90
2017-07-17T20:09:07.832Z,90.20
2017-07-17T20:11:36.216Z,90.70
2017-07-17T20:14:03.953Z,91.10
2017-07-17T20:16:32.396Z,91.00
2017-07-17T20:19:00.194Z,91.00
2017-07-17T20:21:27.588Z,91.00
2017-07-17T20:23:55.762Z,91.60
2017-07-17T20:26:23.059Z,91.60
2017-07-17T20:29:05.781Z,91.50
2017-07-17T20:31:33.418Z,91.10
2017-07-17T20:34:00.553Z,91.40
2017-07-17T20:36:27.266Z,91.60
2017-07-17T20:38:54.228Z,91.70
2017-07-17T20:41:21.574Z,91.50
2017-07-17T20:43:48.988Z,91.60
2017-07-17T20:46:16.075Z,91.80
2017-07-17T20:48:43.200Z,91.70
2017-07-17T20:51:09.781Z,91.70
2017-07-17T20:53:36.271Z,91.80
2017-07-17T20:56:02.920Z,92.00
2017-07-17T20:58:29.969Z,92.00
2017-07-17T21:00:57.026Z,92.00
2017-07-17T21:03:23.342Z,92.00
2017-07-17T21:05:49.658Z,91.90
2017-07-17T21:08:15.933Z,91.90
2017-07-17T21:10:43.120Z,91.60
2017-07-17T21:13:09.408Z,91.60
2017-07-17T21:15:36.422Z,91.80
2017-07-17T21:18:04.543Z,91.90
2017-07-17T21:20:30.834Z,91.90
2017-07-17T21:22:57.098Z,91.80
2017-07-17T21:25:23.405Z,92.00
2017-07-17T21:27:49.670Z,92.00
2017-07-17T21:30:16.012Z,92.00
2017-07-17T21:32:42.295Z,92.00
2017-07-17T21:35:08.574Z,92.00
2017-07-17T21:37:34.839Z,92.10
2017-07-17T21:40:01.138Z,92.20
2017-07-17T21:42:27.415Z,92.60
2017-07-17T21:44:53.699Z,92.60
2017-07-17T21:47:19.990Z,92.90
2017-07-17T21:49:46.307Z,92.80
2017-07-17T21:52:12.599Z,92.90
2017-07-17T21:54:38.898Z,93.20
2017-07-17T21:57:05.921Z,93.30
2017-07-17T21:59:32.182Z,93.30
2017-07-17T22:01:58.511Z,93.80
2017-07-17T22:04:24.794Z,93.70
2017-07-17T22:06:51.091Z,93.80
2017-07-17T22:09:17.395Z,93.70
2017-07-17T22:11:44.704Z,94.00
2017-07-17T22:14:11.050Z,94.00
2017-07-17T22:16:37.363Z,94.20
2017-07-17T22:19:04.415Z,94.50
2017-07-17T22:21:30.725Z,94.30
2017-07-17T22:23:57.022Z,94.60
2017-07-17T22:26:24.080Z,94.80
2017-07-17T22:28:50.351Z,94.70
2017-07-17T22:31:17.398Z,94.90
2017-07-17T22:33:43.650Z,94.90
2017-07-17T22:36:09.928Z,94.80
2017-07-17T22:38:36.218Z,94.80
2017-07-17T22:41:02.492Z,95.00
2017-07-17T22:43:28.765Z,95.00
2017-07-17T22:45:55.090Z,94.90
2017-07-17T22:48:22.078Z,94.90
2017-07-17T22:50:48.362Z,94.80
2017-07-17T22:53:14.643Z,94.60
2017-07-17T22:55:42.770Z,94.60
2017-07-17T22:58:09.037Z,94.40
2017-07-17T23:00:35.343Z,94.30
2017-07-17T23:03:01.602Z,94.60
2017-07-17T23:05:27.878Z,94.60
2017-07-17T23:07:54.164Z,94.80
2017-07-17T23:10:22.263Z,95.20
2017-07-17T23:12:48.553Z,95.20
2017-07-17T23:15:14.846Z,95.30
2017-07-17T23:17:41.134Z,95.40
2017-07-17T23:20:07.412Z,95.70
2017-07-17T23:22:33.707Z,95.60
2017-07-17T23:24:59.970Z,95.70
2017-07-17T23:27:26.270Z,95.30
2017-07-17T23:29:53.570Z,95.20
2017-07-17T23:32:19.847Z,95.10
2017-07-17T23:34:46.164Z,95.00
2017-07-17T23:37:12.591Z,95.60
2017-07-17T23:39:40.072Z,95.50
2017-07-17T23:42:06.416Z,95.80
2017-07-17T23:44:33.463Z,95.90
2017-07-17T23:47:00.054Z,95.90
2017-07-17T23:49:26.419Z,96.00
2017-07-17T23:51:52.726Z,96.10
2017-07-17T23:54:19.003Z,96.30
2017-07-17T23:56:45.279Z,96.20
2017-07-17T23:59:11.557Z,96.10
